Time;durP1;ratioP1;P1;durP2;ratioP2;P2;SDS_P1;SDS_P2;PMS_P1;PMS_P2;Temp;Humidity;BMP_temperature;BMP_pressure;BME280_temperature;BME280_humidity;BME280_pressure;Samples;Min_cycle;Max_cycle;Signal;HPM_P1;HPM_P2
2023/04/26 00:02:21;;;;;;;6.17;3.80;;;;;;;3.15;100.00;100254.16;5077181;28;20609;-68
2023/04/26 00:04:51;;;;;;;5.80;4.23;;;;;;;3.02;100.00;100251.03;5070950;28;20200;-67
2023/04/26 00:07:16;;;;;;;5.57;3.40;;;;;;;3.03;100.00;100260.34;5067048;28;20185;-68
2023/04/26 00:09:43;;;;;;;6.07;3.80;;;;;;;3.05;100.00;100263.69;5068793;28;20228;-68
2023/04/26 00:12:10;;;;;;;5.87;3.77;;;;;;;3.02;100.00;100258.66;5076636;28;20246;-68
2023/04/26 00:14:36;;;;;;;9.67;3.97;;;;;;;3.04;100.00;100267.09;5070924;28;20211;-68
2023/04/26 00:17:03;;;;;;;5.17;3.50;;;;;;;3.05;100.00;100266.22;5070389;28;20483;-68
2023/04/26 00:19:28;;;;;;;7.67;4.10;;;;;;;2.98;100.00;100265.53;5070040;28;20272;-68
2023/04/26 00:21:53;;;;;;;6.80;4.33;;;;;;;2.98;100.00;100268.06;5075244;28;20314;-68
2023/04/26 00:24:19;;;;;;;5.10;3.77;;;;;;;2.90;100.00;100265.69;5070201;28;20177;-68
2023/04/26 00:26:44;;;;;;;5.87;3.53;;;;;;;2.93;100.00;100269.88;5070959;28;20275;-68
2023/04/26 00:29:10;;;;;;;6.53;3.73;;;;;;;2.90;100.00;100273.31;5071433;28;20184;-68
2023/04/26 00:31:35;;;;;;;8.87;3.70;;;;;;;2.77;100.00;100268.47;5073138;28;20277;-68
2023/04/26 00:34:00;;;;;;;7.90;4.17;;;;;;;2.72;100.00;100266.03;5074770;28;20259;-68
2023/04/26 00:36:26;;;;;;;5.20;3.40;;;;;;;2.64;100.00;100267.88;5066158;28;20181;-67
2023/04/26 00:38:51;;;;;;;6.43;4.20;;;;;;;2.64;100.00;100263.66;5061790;28;20184;-67
2023/04/26 00:41:17;;;;;;;6.50;3.90;;;;;;;2.67;100.00;100262.75;5059706;28;20289;-68
2023/04/26 00:43:42;;;;;;;7.23;4.40;;;;;;;2.77;100.00;100260.84;5081176;28;20191;-67
2023/04/26 00:46:08;;;;;;;6.53;3.40;;;;;;;2.68;100.00;100262.72;5069993;28;20173;-67
2023/04/26 00:48:36;;;;;;;5.97;3.57;;;;;;;2.67;100.00;100266.13;5071001;28;20192;-67
2023/04/26 00:51:01;;;;;;;4.97;3.57;;;;;;;2.65;100.00;100269.56;5072558;28;20238;-68
2023/04/26 00:53:27;;;;;;;8.37;4.23;;;;;;;2.67;100.00;100263.59;5073857;28;20266;-67
2023/04/26 00:55:53;;;;;;;9.00;4.10;;;;;;;2.58;100.00;100267.13;5075087;28;20184;-67
2023/04/26 00:58:18;;;;;;;8.17;4.07;;;;;;;2.43;100.00;100262.31;5075482;28;20183;-68
2023/04/26 01:00:44;;;;;;;9.70;4.13;;;;;;;2.50;100.00;100268.16;5070351;28;20226;-68
2023/04/26 01:03:10;;;;;;;4.43;3.73;;;;;;;2.48;100.00;100265.66;5084958;28;20622;-68
2023/04/26 01:05:37;;;;;;;8.20;3.57;;;;;;;2.42;100.00;100270.84;5069810;28;20201;-67
2023/04/26 01:08:03;;;;;;;5.90;4.13;;;;;;;2.41;100.00;100266.63;5069068;28;21682;-68
2023/04/26 01:10:33;;;;;;;5.47;3.93;;;;;;;2.37;100.00;100264.97;5068175;28;20238;-68
2023/04/26 01:12:58;;;;;;;6.30;3.73;;;;;;;2.32;100.00;100264.22;5073436;28;20182;-68
2023/04/26 01:15:27;;;;;;;8.43;3.90;;;;;;;2.31;100.00;100265.94;5074326;28;20180;-68
2023/04/26 01:17:52;;;;;;;7.90;4.10;;;;;;;2.34;100.00;100268.41;5074534;28;20627;-69
2023/04/26 01:20:17;;;;;;;6.20;4.00;;;;;;;2.30;100.00;100274.41;5065174;28;20187;-69
2023/04/26 01:22:43;;;;;;;7.03;3.50;;;;;;;2.32;100.00;100274.38;5093703;28;20188;-68
2023/04/26 01:25:11;;;;;;;5.47;3.93;;;;;;;2.31;100.00;100271.03;5079364;28;20191;-68
2023/04/26 01:27:37;;;;;;;6.47;3.90;;;;;;;2.30;100.00;100271.06;5093510;28;20236;-69
2023/04/26 01:30:03;;;;;;;6.67;3.77;;;;;;;2.14;100.00;100270.47;5065448;28;20240;-67
2023/04/26 01:32:29;;;;;;;8.50;3.77;;;;;;;2.21;100.00;100264.44;5072921;28;20207;-69
2023/04/26 01:34:54;;;;;;;6.33;4.03;;;;;;;2.14;100.00;100263.69;5081024;28;20185;-68
2023/04/26 01:37:19;;;;;;;4.90;3.80;;;;;;;2.19;100.00;100258.53;5079150;28;20187;-68
2023/04/26 01:39:45;;;;;;;5.13;3.77;;;;;;;2.05;100.00;100267.22;5073263;28;20190;-68
2023/04/26 01:42:10;;;;;;;7.33;3.93;;;;;;;2.07;100.00;100272.25;5064233;28;20230;-68
2023/04/26 01:44:35;;;;;;;10.27;3.70;;;;;;;2.04;100.00;100272.34;5072548;28;20184;-68
2023/04/26 01:47:01;;;;;;;8.47;3.77;;;;;;;2.01;100.00;100269.81;5072682;28;20249;-68
2023/04/26 01:49:26;;;;;;;6.10;4.27;;;;;;;2.03;100.00;100276.56;5072932;28;20193;-69
2023/04/26 01:51:52;;;;;;;7.73;3.97;;;;;;;1.96;100.00;100274.16;5077946;28;20219;-68
2023/04/26 01:54:17;;;;;;;5.37;3.67;;;;;;;1.90;100.00;100270.84;5075668;28;20524;-69
2023/04/26 01:56:42;;;;;;;7.13;4.13;;;;;;;1.93;100.00;100270.81;5073511;28;20533;-68
2023/04/26 01:59:08;;;;;;;3.90;3.50;;;;;;;1.84;100.00;100273.47;5074188;28;20870;-69
2023/04/26 02:01:33;;;;;;;8.73;4.07;;;;;;;1.81;100.00;100272.69;5065419;28;20320;-69
2023/04/26 02:03:58;;;;;;;5.27;4.07;;;;;;;1.65;100.00;100274.63;5077296;28;20187;-70
2023/04/26 02:06:23;;;;;;;7.10;4.30;;;;;;;1.60;100.00;100285.69;5073336;28;20209;-69
2023/04/26 02:08:49;;;;;;;8.93;3.67;;;;;;;1.62;100.00;100288.19;5073963;28;20564;-69
2023/04/26 02:11:14;;;;;;;4.73;4.00;;;;;;;1.53;100.00;100280.72;5072254;28;20218;-70
2023/04/26 02:13:39;;;;;;;5.33;3.90;;;;;;;1.42;100.00;100285.94;5080122;28;20211;-69
2023/04/26 02:16:06;;;;;;;8.83;4.47;;;;;;;1.38;100.00;100286.84;5072964;28;20242;-70
2023/04/26 02:18:31;;;;;;;8.37;4.40;;;;;;;1.45;100.00;100276.59;5073575;28;20187;-69
2023/04/26 02:20:56;;;;;;;5.43;4.27;;;;;;;1.33;100.00;100281.84;5070563;28;20219;-69
2023/04/26 02:23:23;;;;;;;6.93;4.03;;;;;;;1.32;100.00;100289.47;5082373;28;20234;-68
2023/04/26 02:25:48;;;;;;;7.40;4.10;;;;;;;1.34;100.00;100283.50;5071687;28;20178;-68
2023/04/26 02:28:17;;;;;;;8.20;4.60;;;;;;;1.27;100.00;100280.22;5072216;28;20196;-69
2023/04/26 02:30:43;;;;;;;8.57;4.63;;;;;;;1.32;100.00;100275.09;5068231;28;20734;-69
2023/04/26 02:33:09;;;;;;;8.93;4.77;;;;;;;1.28;100.00;100270.94;5092735;28;20181;-68
2023/04/26 02:35:36;;;;;;;7.63;4.57;;;;;;;1.27;100.00;100270.06;5076414;28;20190;-68
2023/04/26 02:38:01;;;;;;;8.17;4.63;;;;;;;1.28;100.00;100273.47;5073152;28;20191;-69
2023/04/26 02:40:27;;;;;;;5.77;4.50;;;;;;;1.26;100.00;100272.63;5066212;28;20310;-69
2023/04/26 02:42:52;;;;;;;11.47;4.60;;;;;;;1.26;100.00;100273.47;5085468;28;20188;-68
2023/04/26 02:45:17;;;;;;;4.77;4.30;;;;;;;1.21;100.00;100270.16;5072596;28;20190;-69
2023/04/26 02:47:42;;;;;;;6.80;4.60;;;;;;;1.17;100.00;100272.75;5071634;28;20199;-69
2023/04/26 02:50:08;;;;;;;5.80;4.10;;;;;;;1.23;100.00;100275.22;5078884;28;20225;-68
2023/04/26 02:52:37;;;;;;;6.03;4.37;;;;;;;1.20;100.00;100273.53;5068473;28;20175;-68
2023/04/26 02:55:05;;;;;;;6.60;4.70;;;;;;;1.22;100.00;100273.53;5054642;28;20193;-69
2023/04/26 02:57:31;;;;;;;6.43;4.37;;;;;;;1.19;100.00;100269.34;5071660;28;20187;-69
2023/04/26 02:59:57;;;;;;;5.87;4.70;;;;;;;1.10;100.00;100270.31;5072375;28;20194;-68
2023/04/26 03:02:22;;;;;;;9.83;4.50;;;;;;;1.10;100.00;100277.91;5060768;28;20223;-68
2023/04/26 03:04:47;;;;;;;11.40;4.03;;;;;;;1.05;100.00;100276.28;5075576;28;20214;-69
2023/04/26 03:07:13;;;;;;;6.73;4.43;;;;;;;1.00;100.00;100276.31;5072413;28;20185;-69
2023/04/26 03:09:38;;;;;;;10.00;4.60;;;;;;;1.02;100.00;100277.16;5070933;28;20302;-69
2023/04/26 03:12:05;;;;;;;6.97;4.70;;;;;;;0.82;100.00;100272.34;5060529;28;20229;-69
2023/04/26 03:14:32;;;;;;;7.43;4.70;;;;;;;0.83;100.00;100263.03;5067033;28;20177;-69
2023/04/26 03:16:57;;;;;;;6.33;4.17;;;;;;;0.82;100.00;100264.75;5077237;28;20253;-69
2023/04/26 03:19:22;;;;;;;8.70;5.40;;;;;;;0.73;100.00;100268.22;5073161;28;20186;-69
2023/04/26 03:21:48;;;;;;;9.73;4.60;;;;;;;0.74;100.00;100269.03;5076104;28;20286;-69
2023/04/26 03:24:13;;;;;;;8.07;4.30;;;;;;;0.75;100.00;100269.03;5070648;28;20177;-68
2023/04/26 03:26:38;;;;;;;8.93;5.03;;;;;;;0.74;100.00;100263.97;5062496;28;20271;-69
2023/04/26 03:29:03;;;;;;;5.87;4.77;;;;;;;0.76;100.00;100262.28;5074239;28;20177;-69
2023/04/26 03:31:29;;;;;;;7.37;5.03;;;;;;;0.73;100.00;100269.91;5029314;28;20223;-68
2023/04/26 03:33:54;;;;;;;7.37;4.73;;;;;;;0.71;100.00;100264.00;5060649;28;20645;-68
2023/04/26 03:36:19;;;;;;;11.60;4.77;;;;;;;0.72;100.00;100269.06;5070513;28;20194;-68
2023/04/26 03:38:45;;;;;;;7.83;4.80;;;;;;;0.67;100.00;100269.97;5072094;28;20186;-68
2023/04/26 03:41:10;;;;;;;8.23;4.87;;;;;;;0.62;100.00;100267.47;5072216;28;20226;-68
2023/04/26 03:43:35;;;;;;;6.57;4.70;;;;;;;0.63;100.00;100264.09;5086852;28;20276;-70
2023/04/26 03:46:01;;;;;;;8.97;5.77;;;;;;;0.64;100.00;100266.63;5071290;28;20173;-68
2023/04/26 03:48:26;;;;;;;8.67;5.47;;;;;;;0.61;100.00;100265.81;5071805;28;20622;-68
2023/04/26 03:50:52;;;;;;;7.03;5.27;;;;;;;0.59;100.00;100265.81;5067937;28;20303;-68
2023/04/26 03:53:17;;;;;;;13.63;6.33;;;;;;;0.53;100.00;100263.34;5080831;28;20641;-68
2023/04/26 03:55:42;;;;;;;6.90;5.53;;;;;;;0.52;100.00;100260.84;5071553;28;20197;-68
2023/04/26 03:58:08;;;;;;;13.03;6.30;;;;;;;0.54;100.00;100254.91;5071575;28;20180;-71
2023/04/26 04:00:36;;;;;;;9.47;7.53;;;;;;;0.50;100.00;100258.34;5065843;28;20247;-68
2023/04/26 04:03:01;;;;;;;11.50;6.20;;;;;;;0.41;100.00;100260.94;5082714;28;20213;-69
2023/04/26 04:05:27;;;;;;;13.20;8.03;;;;;;;0.46;100.00;100257.53;5071294;28;20283;-69
2023/04/26 04:07:52;;;;;;;10.37;7.00;;;;;;;0.56;100.00;100259.94;5068340;28;20187;-69
2023/04/26 04:10:17;;;;;;;17.10;7.40;;;;;;;0.52;100.00;100258.31;5058598;28;20197;-69
2023/04/26 04:12:43;;;;;;;10.87;6.80;;;;;;;0.61;100.00;100258.22;5079361;28;20182;-69
2023/04/26 04:15:09;;;;;;;13.63;6.73;;;;;;;0.60;100.00;100252.31;5071351;28;20230;-69
2023/04/26 04:17:34;;;;;;;8.17;6.70;;;;;;;0.59;100.00;100265.81;5070669;28;20185;-68
2023/04/26 04:20:02;;;;;;;12.00;7.20;;;;;;;0.58;100.00;100259.09;5070402;28;20200;-69
2023/04/26 04:22:27;;;;;;;10.67;6.90;;;;;;;0.62;100.00;100257.34;5060415;28;20303;-69
2023/04/26 04:24:53;;;;;;;17.57;6.60;;;;;;;0.60;100.00;100259.91;5069825;28;20695;-69
2023/04/26 04:27:20;;;;;;;9.63;6.27;;;;;;;0.63;100.00;100257.34;5071779;28;20226;-69
2023/04/26 04:29:45;;;;;;;9.93;7.27;;;;;;;0.67;100.00;100269.97;5069958;28;20280;-69
2023/04/26 04:32:12;;;;;;;11.93;7.07;;;;;;;0.73;100.00;100269.91;5058653;28;20492;-69
2023/04/26 04:34:38;;;;;;;11.27;7.53;;;;;;;0.72;100.00;100275.81;5065624;28;20181;-69
2023/04/26 04:37:03;;;;;;;13.17;6.73;;;;;;;0.74;100.00;100277.47;5071545;28;20185;-69
2023/04/26 04:39:29;;;;;;;10.83;7.47;;;;;;;0.78;100.00;100279.13;5071592;28;20642;-70
2023/04/26 04:41:55;;;;;;;12.83;7.40;;;;;;;0.83;100.00;100276.53;5075795;28;20217;-69
2023/04/26 04:44:22;;;;;;;12.67;7.53;;;;;;;0.95;100.00;100293.28;5072356;28;20691;-69
2023/04/26 04:46:48;;;;;;;10.73;8.10;;;;;;;0.95;100.00;100299.19;5069578;28;20183;-69
2023/04/26 04:49:13;;;;;;;11.10;7.50;;;;;;;1.03;100.00;100303.31;5070592;28;20193;-69
2023/04/26 04:51:39;;;;;;;12.00;7.37;;;;;;;1.06;100.00;100311.72;5062629;28;20816;-68
2023/04/26 04:54:15;;;;;;;10.67;6.97;;;;;;;1.04;100.00;100308.38;5074429;28;20665;-69
2023/04/26 04:56:41;;;;;;;17.47;6.87;;;;;;;1.21;100.00;100312.41;5069418;28;20202;-69
2023/04/26 04:59:07;;;;;;;10.13;7.20;;;;;;;1.25;100.00;100309.81;5070160;28;20183;-69
2023/04/26 05:01:33;;;;;;;8.90;7.00;;;;;;;1.33;100.00;100309.72;5072345;28;20308;-69
2023/04/26 05:03:59;;;;;;;14.23;8.10;;;;;;;1.45;100.00;100309.56;5069761;28;20190;-69
2023/04/26 05:06:26;;;;;;;11.80;7.87;;;;;;;1.49;100.00;100301.88;5070641;28;20601;-70
2023/04/26 05:08:52;;;;;;;11.77;8.47;;;;;;;1.55;100.00;100304.34;5069733;28;20319;-69
2023/04/26 05:11:17;;;;;;;17.00;8.77;;;;;;;1.72;100.00;100304.09;5070141;28;20438;-69
2023/04/26 05:13:42;;;;;;;13.20;8.10;;;;;;;1.82;100.00;100300.56;5076872;28;20882;-69
2023/04/26 05:16:07;;;;;;;13.97;8.10;;;;;;;1.89;100.00;100306.41;5070330;28;20258;-70
2023/04/26 05:18:33;;;;;;;11.27;8.23;;;;;;;2.04;100.00;100310.38;5078827;28;20169;-69
2023/04/26 05:20:58;;;;;;;12.10;8.13;;;;;;;2.16;100.00;100305.13;5071962;28;20589;-70
2023/04/26 05:23:23;;;;;;;10.70;7.77;;;;;;;2.30;100.00;100309.97;5070600;28;20182;-69
2023/04/26 05:25:49;;;;;;;14.20;8.00;;;;;;;2.45;100.00;100313.94;5073877;28;20591;-68
2023/04/26 05:28:15;;;;;;;8.87;7.83;;;;;;;2.62;100.00;100308.56;5074222;28;20180;-68
2023/04/26 05:30:41;;;;;;;12.13;8.00;;;;;;;2.75;100.00;100319.31;5068951;28;20239;-68
2023/04/26 05:33:06;;;;;;;9.07;7.10;;;;;;;2.92;100.00;100320.72;5085413;28;20169;-69
2023/04/26 05:35:32;;;;;;;9.83;6.33;;;;;;;2.99;100.00;100312.94;5086071;28;20615;-67
2023/04/26 05:37:57;;;;;;;9.57;5.73;;;;;;;3.15;100.00;100318.56;5073824;28;20176;-67
2023/04/26 05:40:22;;;;;;;7.47;5.87;;;;;;;3.30;100.00;100321.63;5063982;28;20228;-68
2023/04/26 05:42:51;;;;;;;11.93;5.77;;;;;;;3.39;100.00;100324.00;5071295;28;20183;-68
2023/04/26 05:45:16;;;;;;;12.03;6.30;;;;;;;3.54;100.00;100322.81;5072915;28;20184;-68
2023/04/26 05:47:42;;;;;;;11.60;6.23;;;;;;;3.70;100.00;100324.16;5073918;28;20188;-68
2023/04/26 05:50:08;;;;;;;7.63;5.50;;;;;;;3.94;100.00;100327.00;5063483;28;20204;-67
2023/04/26 05:52:33;;;;;;;9.70;5.47;;;;;;;4.16;100.00;100321.41;5084343;28;20181;-68
2023/04/26 05:55:01;;;;;;;8.57;5.00;;;;;;;4.35;100.00;100326.88;5059996;28;20211;-67
2023/04/26 05:57:26;;;;;;;10.60;5.23;;;;;;;4.44;100.00;100331.75;5056702;28;20177;-68
2023/04/26 05:59:51;;;;;;;10.73;6.00;;;;;;;4.45;100.00;100335.97;5075290;28;20200;-68
2023/04/26 06:02:16;;;;;;;9.53;6.00;;;;;;;4.65;100.00;100338.00;5078931;28;20220;-68
2023/04/26 06:04:42;;;;;;;13.90;6.70;;;;;;;4.94;100.00;100338.94;5073602;28;20245;-68
2023/04/26 06:07:07;;;;;;;11.07;6.03;;;;;;;5.09;100.00;100344.50;5073271;28;20217;-67
2023/04/26 06:09:32;;;;;;;13.43;5.90;;;;;;;5.01;100.00;100344.69;5072895;28;20702;-68
2023/04/26 06:11:58;;;;;;;8.07;5.30;;;;;;;5.10;100.00;100336.81;5077677;28;20212;-67
2023/04/26 06:14:23;;;;;;;8.30;5.67;;;;;;;5.38;100.00;100353.03;5073886;28;20190;-68
2023/04/26 06:16:48;;;;;;;9.93;5.53;;;;;;;5.76;100.00;100341.66;5073073;28;20191;-68
2023/04/26 06:19:14;;;;;;;7.97;5.00;;;;;;;5.80;100.00;100350.06;5072891;28;20181;-69
2023/04/26 06:21:39;;;;;;;11.10;4.90;;;;;;;5.84;100.00;100349.09;5075847;28;20237;-70
2023/04/26 06:24:05;;;;;;;10.17;5.30;;;;;;;6.05;100.00;100355.28;5074369;28;20188;-70
2023/04/26 06:26:31;;;;;;;11.10;5.07;;;;;;;5.88;100.00;100353.25;5073113;28;20692;-72
2023/04/26 06:28:56;;;;;;;9.73;5.07;;;;;;;6.07;100.00;100348.41;5072123;28;20169;-74
2023/04/26 06:31:21;;;;;;;10.77;4.83;;;;;;;6.19;100.00;100354.00;5072845;28;20557;-73
2023/04/26 06:33:47;;;;;;;6.90;4.80;;;;;;;6.50;100.00;100351.28;5065562;28;20171;-72
2023/04/26 06:36:13;;;;;;;10.47;4.53;;;;;;;7.50;100.00;100352.00;5069351;28;20280;-71
2023/04/26 06:38:38;;;;;;;7.60;4.47;;;;;;;8.29;100.00;100353.25;5071326;28;20184;-73
2023/04/26 06:41:03;;;;;;;9.03;4.67;;;;;;;9.41;100.00;100339.06;5064052;28;20232;-72
2023/04/26 06:43:29;;;;;;;6.87;4.03;;;;;;;10.69;89.34;100343.19;5081147;28;20643;-72
2023/04/26 06:45:54;;;;;;;4.03;3.30;;;;;;;12.73;70.48;100333.75;5070198;28;20743;-75
2023/04/26 06:48:19;;;;;;;6.23;2.67;;;;;;;14.71;54.56;100325.56;5088014;28;20667;-73
2023/04/26 06:50:45;;;;;;;5.87;2.93;;;;;;;14.49;52.14;100338.16;5064660;28;20231;-75
2023/04/26 06:53:10;;;;;;;6.70;2.77;;;;;;;15.53;45.93;100332.81;5068925;28;20209;-75
2023/04/26 06:55:35;;;;;;;4.83;2.20;;;;;;;16.02;43.08;100331.88;5070397;28;20188;-75
2023/04/26 06:58:01;;;;;;;7.10;2.60;;;;;;;15.60;42.74;100340.06;5067156;28;20177;-75
2023/04/26 07:00:27;;;;;;;5.20;3.00;;;;;;;13.74;46.36;100343.91;5051025;28;20570;-74
2023/04/26 07:02:52;;;;;;;6.93;3.23;;;;;;;13.03;49.76;100340.56;5058423;28;20238;-75
2023/04/26 07:05:18;;;;;;;5.17;3.00;;;;;;;13.27;48.90;100347.72;5071626;28;20209;-73
2023/04/26 07:07:43;;;;;;;7.33;3.03;;;;;;;13.69;49.87;100344.25;5060573;28;20177;-73
2023/04/26 07:10:09;;;;;;;6.77;2.93;;;;;;;13.65;49.28;100341.94;5056660;28;20208;-72
2023/04/26 07:12:34;;;;;;;15.97;3.53;;;;;;;14.81;46.46;100349.88;5069024;28;20182;-59
2023/04/26 07:15:00;;;;;;;5.43;2.67;;;;;;;15.89;43.10;100347.53;5072161;28;20651;-59
2023/04/26 07:17:25;;;;;;;6.37;2.90;;;;;;;15.86;42.28;100344.34;5065065;28;20224;-59
2023/04/26 07:19:51;;;;;;;8.27;3.13;;;;;;;16.12;42.28;100347.59;5072633;28;20549;-60
2023/04/26 07:22:16;;;;;;;6.13;3.17;;;;;;;16.64;40.37;100334.25;5077802;28;20284;-59
2023/04/26 07:24:41;;;;;;;7.47;2.90;;;;;;;15.47;41.82;100345.28;5061272;28;20181;-59
2023/04/26 07:27:06;;;;;;;5.70;2.93;;;;;;;14.14;42.29;100338.75;5053207;28;20177;-59
2023/04/26 07:29:32;;;;;;;10.80;3.07;;;;;;;14.89;42.75;100345.03;5053283;28;20204;-58
2023/04/26 07:31:57;;;;;;;8.03;3.33;;;;;;;15.84;40.99;100343.59;5039801;28;20212;-59
2023/04/26 07:34:23;;;;;;;6.00;3.60;;;;;;;16.34;40.02;100340.81;5055936;28;20182;-59
2023/04/26 07:36:48;;;;;;;9.47;3.87;;;;;;;15.78;40.91;100342.28;5059816;28;20176;-58
2023/04/26 07:39:14;;;;;;;7.60;2.73;;;;;;;15.01;41.83;100340.78;5065248;28;20522;-74
2023/04/26 07:41:39;;;;;;;5.23;2.63;;;;;;;15.32;39.64;100336.84;5058990;28;20235;-72
2023/04/26 07:44:05;;;;;;;5.57;2.97;;;;;;;15.30;40.33;100323.16;5083942;28;20738;-72
2023/04/26 07:46:32;;;;;;;5.87;3.27;;;;;;;15.63;39.86;100337.25;5070680;28;20184;-70
2023/04/26 07:48:57;;;;;;;9.27;3.40;;;;;;;13.72;42.60;100338.03;5071630;28;20173;-70
2023/04/26 07:51:22;;;;;;;7.13;3.30;;;;;;;13.34;44.46;100342.06;5062337;28;20232;-70
2023/04/26 07:53:48;;;;;;;9.20;3.50;;;;;;;14.10;43.33;100326.13;5070544;28;20169;-71
2023/04/26 07:56:14;;;;;;;10.80;3.67;;;;;;;15.33;41.98;100332.47;5056718;28;20189;-71
2023/04/26 07:58:39;;;;;;;6.13;2.90;;;;;;;15.42;39.05;100328.44;5051371;28;20177;-70
2023/04/26 08:01:05;;;;;;;10.73;3.40;;;;;;;14.95;40.34;100330.84;5047882;28;20259;-70
2023/04/26 08:03:31;;;;;;;10.30;2.87;;;;;;;14.92;41.35;100331.03;5067904;28;20177;-70
2023/04/26 08:05:57;;;;;;;7.07;2.43;;;;;;;15.30;40.81;100340.47;5067547;28;20208;-71
2023/04/26 08:08:24;;;;;;;6.73;3.00;;;;;;;16.83;38.16;100331.91;5069931;28;20220;-71
2023/04/26 08:10:50;;;;;;;6.30;2.83;;;;;;;18.32;35.82;100331.34;5066883;28;20792;-71
2023/04/26 08:13:15;;;;;;;6.90;3.10;;;;;;;18.30;34.86;100335.03;5080824;28;20189;-71
2023/04/26 08:15:40;;;;;;;10.13;3.03;;;;;;;18.65;34.22;100341.66;5051675;28;20659;-72
2023/04/26 08:18:06;;;;;;;5.73;2.90;;;;;;;18.42;34.25;100341.81;5052684;28;20244;-71
2023/04/26 08:20:31;;;;;;;7.40;3.20;;;;;;;18.67;35.13;100337.94;5054887;28;20630;-72
2023/04/26 08:22:57;;;;;;;6.00;2.87;;;;;;;19.48;33.95;100336.28;5075684;28;20193;-70
2023/04/26 08:25:23;;;;;;;6.97;3.30;;;;;;;20.01;31.05;100340.28;5057223;28;20430;-73
2023/04/26 08:27:48;;;;;;;5.90;3.13;;;;;;;18.90;33.20;100339.53;5050362;28;20180;-72
2023/04/26 08:30:14;;;;;;;10.30;3.73;;;;;;;18.52;34.02;100339.25;5042621;28;20232;-72
2023/04/26 08:32:39;;;;;;;8.40;2.70;;;;;;;17.87;35.16;100340.19;5052745;28;20226;-70
2023/04/26 08:35:05;;;;;;;6.37;2.70;;;;;;;17.59;33.98;100337.22;5070438;28;20196;-70
2023/04/26 08:37:30;;;;;;;8.87;3.10;;;;;;;17.65;34.13;100342.88;5062093;28;20181;-71
2023/04/26 08:39:55;;;;;;;5.53;2.10;;;;;;;17.53;34.92;100340.31;5053201;28;20184;-72
2023/04/26 08:42:25;;;;;;;4.40;2.30;;;;;;;19.29;32.80;100337.91;5040739;28;20243;-72
2023/04/26 08:44:51;;;;;;;3.63;2.43;;;;;;;20.02;29.74;100341.09;5055228;28;20264;-71
2023/04/26 08:47:19;;;;;;;5.23;2.37;;;;;;;18.88;30.59;100330.06;5076595;28;20231;-71
2023/04/26 08:49:47;;;;;;;5.43;2.40;;;;;;;17.56;31.73;100329.66;5052127;28;20205;-71
2023/04/26 08:52:15;;;;;;;4.90;2.27;;;;;;;17.18;32.07;100336.13;5060460;28;20288;-71
2023/04/26 08:54:41;;;;;;;4.40;2.40;;;;;;;17.67;32.83;100330.56;5069397;28;20181;-71
2023/04/26 08:57:07;;;;;;;4.90;2.10;;;;;;;16.88;33.62;100328.91;5069053;28;20193;-71
2023/04/26 08:59:37;;;;;;;7.37;2.70;;;;;;;16.77;33.76;100333.19;5053011;28;20238;-73
2023/04/26 09:02:05;;;;;;;5.43;2.83;;;;;;;15.77;34.46;100332.84;5062456;28;20233;-70
2023/04/26 09:04:31;;;;;;;3.57;2.23;;;;;;;14.03;38.15;100330.88;5058907;28;20212;-71
2023/04/26 09:07:00;;;;;;;4.57;2.47;;;;;;;15.65;36.26;100337.97;5070755;28;20211;-73
2023/04/26 09:09:40;;;;;;;9.27;2.30;;;;;;;16.20;35.57;100328.84;5070658;28;20247;-71
2023/04/26 09:12:06;;;;;;;5.13;2.27;;;;;;;15.77;35.63;100328.47;5067336;28;20310;-71
2023/04/26 09:14:32;;;;;;;7.60;2.77;;;;;;;16.69;35.61;100317.34;5072813;28;20230;-72
2023/04/26 09:16:57;;;;;;;6.33;2.60;;;;;;;19.19;32.22;100313.59;5074737;28;20180;-72
2023/04/26 09:19:36;;;;;;;4.90;2.30;;;;;;;18.78;30.22;100312.75;5073104;28;20180;-71
2023/04/26 09:22:02;;;;;;;5.73;2.50;;;;;;;18.59;31.21;100316.13;5053168;28;20548;-71
2023/04/26 09:24:28;;;;;;;3.83;2.27;;;;;;;18.28;33.20;100316.09;5064470;28;20632;-71
2023/04/26 09:27:11;;;;;;;5.13;2.00;;;;;;;19.67;30.77;100318.03;5056463;28;20181;-71
2023/04/26 09:29:36;;;;;;;3.53;2.20;;;;;;;20.38;29.41;100309.97;5064036;28;20189;-72
2023/04/26 09:32:02;;;;;;;3.63;1.80;;;;;;;20.23;29.69;100313.03;5078793;28;20212;-73
2023/04/26 09:34:29;;;;;;;5.73;2.10;;;;;;;19.70;27.65;100313.47;5063965;28;20194;-70
2023/04/26 09:36:56;;;;;;;4.17;2.10;;;;;;;19.80;28.66;100311.69;5061586;28;20239;-70
2023/04/26 09:39:31;;;;;;;5.00;2.00;;;;;;;18.21;29.94;100303.59;5066999;28;20470;-71
2023/04/26 09:41:57;;;;;;;3.53;2.20;;;;;;;18.63;30.95;100301.84;5069731;28;20238;-73
2023/04/26 09:44:23;;;;;;;4.83;2.07;;;;;;;18.76;30.86;100301.66;5072790;28;20638;-72
2023/04/26 09:47:10;;;;;;;4.40;2.30;;;;;;;18.68;30.87;100302.28;5073652;28;20294;-72
2023/04/26 09:49:47;;;;;;;6.67;2.33;;;;;;;17.62;33.21;100304.09;5069570;28;20200;-72
2023/04/26 09:52:14;;;;;;;4.73;2.43;;;;;;;18.03;32.59;100305.94;5073248;28;20215;-73
2023/04/26 09:54:45;;;;;;;4.57;2.20;;;;;;;17.63;32.03;100303.97;5073516;28;20219;-74
2023/04/26 09:57:12;;;;;;;5.93;2.47;;;;;;;16.35;33.43;100308.72;5072679;28;20189;-73
2023/04/26 09:59:46;;;;;;;5.07;2.07;;;;;;;15.24;34.66;100307.22;5069995;28;20238;-74
2023/04/26 10:02:21;;;;;;;5.87;2.47;;;;;;;15.39;34.42;100311.31;5049487;28;20233;-73
2023/04/26 10:04:48;;;;;;;6.37;2.50;;;;;;;15.98;35.34;100310.53;5071689;28;20204;-73
2023/04/26 10:07:15;;;;;;;5.73;2.90;;;;;;;15.74;34.43;100307.94;5072364;28;20226;-72
2023/04/26 10:09:42;;;;;;;5.10;2.43;;;;;;;16.49;33.34;100300.72;5071303;28;20235;-71
2023/04/26 10:12:13;;;;;;;5.13;2.40;;;;;;;17.37;33.63;100296.50;5066665;28;20309;-74
2023/04/26 10:14:40;;;;;;;5.50;1.80;;;;;;;17.40;31.61;100308.44;5071890;28;20283;-73
2023/04/26 10:17:05;;;;;;;6.20;2.33;;;;;;;17.66;33.38;100301.16;5073747;28;20192;-72
2023/04/26 10:19:33;;;;;;;5.27;2.63;;;;;;;17.27;32.72;100301.59;5074058;28;20257;-72
2023/04/26 10:22:04;;;;;;;9.60;2.70;;;;;;;15.78;35.66;100303.38;5064365;28;20244;-74
2023/04/26 10:24:29;;;;;;;5.17;2.00;;;;;;;16.30;35.30;100299.50;5061113;28;20230;-75
2023/04/26 10:26:58;;;;;;;53.37;9.10;;;;;;;16.27;34.98;100299.75;5085678;28;20184;-73
2023/04/26 10:29:25;;;;;;;5.47;3.00;;;;;;;15.76;33.76;100295.69;5072267;28;20228;-74
2023/04/26 10:32:09;;;;;;;6.23;2.63;;;;;;;15.33;35.44;100294.44;5077400;28;20384;-74
2023/04/26 10:34:35;;;;;;;8.47;2.63;;;;;;;15.53;35.16;100292.19;5068227;28;20185;-74
2023/04/26 10:37:17;;;;;;;8.10;2.93;;;;;;;15.84;34.69;100289.13;5063812;28;20275;-74
2023/04/26 10:39:44;;;;;;;7.03;2.60;;;;;;;16.13;34.83;100285.19;5068856;28;20177;-73
2023/04/26 10:42:26;;;;;;;4.90;2.77;;;;;;;16.21;34.82;100283.81;5059594;28;20247;-74
2023/04/26 10:44:56;;;;;;;4.30;2.33;;;;;;;16.55;34.89;100273.47;5072930;28;20191;-73
2023/04/26 10:47:21;;;;;;;6.63;2.33;;;;;;;16.56;35.32;100267.28;5068842;28;20181;-74
2023/04/26 10:49:47;;;;;;;4.53;2.73;;;;;;;16.17;32.75;100269.41;5061959;28;20655;-74
2023/04/26 10:52:22;;;;;;;4.80;1.87;;;;;;;15.95;34.53;100271.00;5078059;28;20234;-75
2023/04/26 10:54:49;;;;;;;5.23;2.20;;;;;;;16.00;33.47;100261.13;5068315;28;20188;-74
2023/04/26 10:57:16;;;;;;;4.27;2.17;;;;;;;16.20;33.89;100261.38;5071780;28;20200;-73
2023/04/26 11:00:15;;;;;;;7.57;2.40;;;;;;;15.91;34.50;100261.81;5071727;28;20291;-74
2023/04/26 11:02:54;;;;;;;3.03;1.73;;;;;;;15.64;33.17;100263.72;5045924;28;20224;-72
2023/04/26 11:05:46;;;;;;;7.47;2.20;;;;;;;15.93;34.94;100252.97;5068501;28;20253;-74
2023/04/26 11:08:20;;;;;;;4.10;2.30;;;;;;;16.26;32.82;100250.53;5072637;28;20587;-74
2023/04/26 11:10:51;;;;;;;4.47;2.33;;;;;;;16.06;34.15;100249.47;5061024;28;20786;-73
2023/04/26 11:13:18;;;;;;;4.20;2.07;;;;;;;15.42;34.84;100258.44;5061531;28;20188;-73
2023/04/26 11:15:43;;;;;;;4.33;2.50;;;;;;;15.66;35.89;100248.03;5067470;28;20219;-74
2023/04/26 11:18:09;;;;;;;6.50;2.60;;;;;;;15.63;35.22;100254.28;5070866;28;20276;-74
2023/04/26 11:20:34;;;;;;;6.63;2.50;;;;;;;14.77;35.79;100256.06;5066301;28;20247;-73
2023/04/26 11:23:00;;;;;;;5.43;2.37;;;;;;;14.56;35.92;100247.16;5083586;28;20185;-73